Time;durP1;ratioP1;P1;durP2;ratioP2;P2;SDS_P1;SDS_P2;PMS_P1;PMS_P2;Temp;Humidity;BMP_temperature;BMP_pressure;BME280_temperature;BME280_humidity;BME280_pressure;Samples;Min_cycle;Max_cycle;Signal;HPM_P1;HPM_P2
2023/04/22 00:01:52;;;;;;;7.37;6.60;;;;;;;7.79;nan;96498.34;4969708;28;20238;-67
2023/04/22 00:04:21;;;;;;;8.73;7.17;;;;;;;7.88;nan;96499.09;4970914;28;20496;-66
2023/04/22 00:06:48;;;;;;;7.50;6.73;;;;;;;7.90;nan;96489.16;4923343;28;20213;-67
2023/04/22 00:09:16;;;;;;;8.57;6.70;;;;;;;7.96;nan;96498.97;4968240;28;20498;-65
2023/04/22 00:11:44;;;;;;;7.97;6.67;;;;;;;8.01;nan;96491.31;4951992;28;20228;-65
2023/04/22 00:14:11;;;;;;;7.07;6.37;;;;;;;8.08;nan;96488.78;4952777;28;20294;-68
2023/04/22 00:16:39;;;;;;;6.60;6.00;;;;;;;8.09;nan;96485.94;4953790;28;20213;-69
2023/04/22 00:19:07;;;;;;;7.13;6.00;;;;;;;8.08;nan;96486.13;4971505;28;20236;-69
2023/04/22 00:21:36;;;;;;;7.03;5.77;;;;;;;8.16;nan;96495.78;4973488;28;20217;-68
2023/04/22 00:24:04;;;;;;;6.33;5.83;;;;;;;8.20;nan;96502.31;4912633;28;20209;-67
2023/04/22 00:26:31;;;;;;;5.90;5.40;;;;;;;8.21;nan;96493.41;4950735;28;20299;-66
2023/04/22 00:28:59;;;;;;;7.47;5.87;;;;;;;8.22;nan;96497.66;4966998;28;20231;-67
2023/04/22 00:31:27;;;;;;;6.10;5.60;;;;;;;8.21;nan;96501.31;4945862;28;20382;-68
2023/04/22 00:33:55;;;;;;;6.77;6.17;;;;;;;8.22;nan;96492.38;4972753;28;20609;-69
2023/04/22 00:36:22;;;;;;;6.17;5.60;;;;;;;8.22;nan;96501.09;4971985;28;20842;-70
2023/04/22 00:38:51;;;;;;;6.93;6.23;;;;;;;8.22;nan;96495.81;4919138;28;20216;-67
2023/04/22 00:41:20;;;;;;;5.73;5.23;;;;;;;8.24;nan;96493.03;4947000;28;20942;-66
2023/04/22 00:43:47;;;;;;;7.53;5.87;;;;;;;8.25;nan;96492.00;4976299;28;20685;-66
2023/04/22 00:46:16;;;;;;;5.93;5.43;;;;;;;8.19;nan;96498.84;4931578;28;20296;-68
2023/04/22 00:48:45;;;;;;;6.10;5.20;;;;;;;8.20;nan;96491.75;4966571;28;20431;-69
2023/04/22 00:51:12;;;;;;;6.37;5.80;;;;;;;8.26;nan;96486.53;4975470;28;20217;-69
2023/04/22 00:53:40;;;;;;;6.27;5.80;;;;;;;8.29;nan;96493.28;4916192;28;21732;-68
2023/04/22 00:56:10;;;;;;;6.63;6.13;;;;;;;8.28;nan;96494.28;4975454;28;20217;-69
2023/04/22 00:58:38;;;;;;;6.23;5.73;;;;;;;8.17;nan;96498.22;4955179;28;20435;-70
2023/04/22 01:01:05;;;;;;;8.83;5.43;;;;;;;8.26;nan;96497.09;4938073;28;20264;-71
2023/04/22 01:03:34;;;;;;;6.03;5.53;;;;;;;8.15;nan;96502.84;4973681;28;20696;-68
2023/04/22 01:06:02;;;;;;;5.90;5.40;;;;;;;8.01;nan;96503.72;4973423;28;20617;-66
2023/04/22 01:08:30;;;;;;;5.77;5.27;;;;;;;7.87;nan;96500.09;4934619;28;20757;-68
2023/04/22 01:10:58;;;;;;;5.83;5.23;;;;;;;7.89;nan;96506.81;4968622;28;20233;-69
2023/04/22 01:13:29;;;;;;;5.53;5.13;;;;;;;7.96;nan;96509.53;4948840;28;20842;-67
2023/04/22 01:15:56;;;;;;;6.37;5.20;;;;;;;7.96;nan;96504.25;4957457;28;20205;-69
2023/04/22 01:18:24;;;;;;;7.53;6.43;;;;;;;7.90;nan;96508.44;4954280;28;20639;-67
2023/04/22 01:20:52;;;;;;;5.93;5.43;;;;;;;7.76;nan;96509.28;4974953;28;20314;-65
2023/04/22 01:23:22;;;;;;;7.93;5.77;;;;;;;7.62;nan;96516.19;4977376;28;20672;-68
2023/04/22 01:25:49;;;;;;;6.07;5.37;;;;;;;7.50;nan;96514.00;4930725;28;20314;-69
2023/04/22 01:28:17;;;;;;;8.03;6.10;;;;;;;7.53;nan;96520.72;4956189;28;20217;-68
2023/04/22 01:30:45;;;;;;;6.37;5.77;;;;;;;7.48;nan;96523.91;4957148;28;20299;-67
2023/04/22 01:33:13;;;;;;;9.70;6.37;;;;;;;7.37;nan;96514.63;4957549;28;20701;-67
2023/04/22 01:35:40;;;;;;;7.80;6.47;;;;;;;7.26;nan;96516.88;4973119;28;20414;-67
2023/04/22 01:38:09;;;;;;;9.70;6.63;;;;;;;7.23;nan;96521.50;4976610;28;20273;-66
2023/04/22 01:40:39;;;;;;;7.37;6.67;;;;;;;7.13;nan;96514.84;4926513;28;20803;-67
2023/04/22 01:43:07;;;;;;;8.67;7.03;;;;;;;7.15;nan;96518.13;4954086;28;20574;-71
2023/04/22 01:45:34;;;;;;;7.03;6.43;;;;;;;7.14;nan;96512.03;4947109;23;20230;-72
2023/04/22 01:48:02;;;;;;;10.17;7.20;;;;;;;7.18;nan;96510.69;4956926;28;20840;-68
2023/04/22 01:50:29;;;;;;;8.67;7.10;;;;;;;7.16;nan;96514.47;4929988;28;20217;-70
2023/04/22 01:52:57;;;;;;;8.70;7.20;;;;;;;7.20;nan;96513.16;4954309;28;20267;-70
2023/04/22 01:55:25;;;;;;;7.83;7.13;;;;;;;7.29;nan;96516.50;4945793;28;20581;-70
2023/04/22 01:57:54;;;;;;;7.67;6.97;;;;;;;7.22;nan;96509.34;4880509;28;20219;-69
2023/04/22 02:00:22;;;;;;;6.33;5.83;;;;;;;7.31;nan;96525.06;4939929;28;20211;-70
2023/04/22 02:02:49;;;;;;;6.80;6.10;;;;;;;7.23;nan;96521.50;4918286;28;20218;-70
2023/04/22 02:05:17;;;;;;;8.63;6.30;;;;;;;7.15;nan;96526.84;4904133;28;20630;-72
2023/04/22 02:07:45;;;;;;;7.07;6.20;;;;;;;7.08;nan;96528.56;4933561;28;20207;-71
2023/04/22 02:10:13;;;;;;;6.43;5.83;;;;;;;7.06;nan;96522.66;4941035;28;20206;-70
2023/04/22 02:12:40;;;;;;;6.87;5.93;;;;;;;7.01;nan;96517.09;4902889;28;20300;-69
2023/04/22 02:15:10;;;;;;;6.80;6.30;;;;;;;6.88;nan;96517.72;4916416;28;20255;-69
2023/04/22 02:17:41;;;;;;;7.20;6.60;;;;;;;6.72;nan;96513.38;4959582;23;20299;-66
2023/04/22 02:20:10;;;;;;;7.87;7.13;;;;;;;6.66;nan;96518.34;4956045;28;20964;-66
2023/04/22 02:22:38;;;;;;;6.57;6.07;;;;;;;6.55;nan;96518.75;4973911;28;20244;-67
2023/04/22 02:25:07;;;;;;;6.67;6.27;;;;;;;6.49;nan;96524.72;4967263;28;20291;-67
2023/04/22 02:27:34;;;;;;;7.60;6.93;;;;;;;6.42;nan;96524.56;4928194;28;20251;-67
2023/04/22 02:30:02;;;;;;;8.47;7.60;;;;;;;6.32;nan;96518.72;4926839;28;20908;-67
2023/04/22 02:32:31;;;;;;;8.73;7.93;;;;;;;6.31;nan;96517.09;4934527;28;21021;-67
2023/04/22 02:35:00;;;;;;;7.67;7.07;;;;;;;6.32;nan;96511.66;4952997;28;20225;-70
2023/04/22 02:37:28;;;;;;;8.43;7.73;;;;;;;6.28;nan;96515.63;4933540;28;20327;-67
2023/04/22 02:39:56;;;;;;;8.17;7.57;;;;;;;6.25;nan;96512.53;4954296;28;20736;-68
2023/04/22 02:42:23;;;;;;;7.60;7.00;;;;;;;6.16;nan;96519.63;4928033;28;20221;-69
2023/04/22 02:44:51;;;;;;;8.77;7.97;;;;;;;6.07;nan;96518.88;4953318;28;20210;-69
2023/04/22 02:47:19;;;;;;;8.03;7.33;;;;;;;6.02;nan;96521.16;4913471;28;20238;-68
2023/04/22 02:49:48;;;;;;;14.40;8.80;;;;;;;6.03;nan;96528.91;4956742;28;20209;-69
2023/04/22 02:52:15;;;;;;;8.43;7.70;;;;;;;6.03;nan;96531.53;4928243;28;20221;-68
2023/04/22 02:54:43;;;;;;;8.97;8.33;;;;;;;6.04;nan;96524.44;4952777;28;20687;-68
2023/04/22 02:57:11;;;;;;;9.67;8.77;;;;;;;5.84;nan;96527.47;4952265;28;20229;-67
2023/04/22 02:59:38;;;;;;;8.83;8.13;;;;;;;5.75;nan;96533.75;4894934;28;20876;-66
2023/04/22 03:02:06;;;;;;;10.77;9.83;;;;;;;5.76;nan;96530.94;4933458;28;20217;-68
2023/04/22 03:04:35;;;;;;;8.93;8.23;;;;;;;5.83;nan;96528.47;4937128;28;20205;-68
2023/04/22 03:07:04;;;;;;;8.93;8.20;;;;;;;5.86;nan;96527.28;4951924;28;20225;-67
2023/04/22 03:09:32;;;;;;;8.50;7.83;;;;;;;5.90;nan;96529.41;4933994;28;20225;-67
2023/04/22 03:12:01;;;;;;;8.60;7.73;;;;;;;5.92;nan;96534.53;4955829;28;20209;-67
2023/04/22 03:14:29;;;;;;;8.30;7.57;;;;;;;5.78;nan;96526.31;4927698;28;20233;-66
2023/04/22 03:16:57;;;;;;;8.13;7.53;;;;;;;5.70;nan;96528.19;4928091;28;20987;-68
2023/04/22 03:19:24;;;;;;;8.57;7.90;;;;;;;5.61;nan;96528.19;4938977;28;20213;-66
2023/04/22 03:21:52;;;;;;;9.23;8.40;;;;;;;5.47;nan;96524.44;4948800;28;20222;-67
2023/04/22 03:24:21;;;;;;;9.20;8.40;;;;;;;5.36;nan;96533.53;4932224;28;20206;-68
2023/04/22 03:26:48;;;;;;;8.87;8.07;;;;;;;5.33;nan;96535.66;4953541;28;21019;-69
2023/04/22 03:29:16;;;;;;;9.07;8.13;;;;;;;5.30;nan;96531.56;4927692;28;20260;-68
2023/04/22 03:31:44;;;;;;;8.43;7.63;;;;;;;5.28;nan;96527.44;4955177;28;20214;-69
2023/04/22 03:34:11;;;;;;;9.13;8.30;;;;;;;5.28;nan;96533.50;4912874;28;21038;-70
2023/04/22 03:36:39;;;;;;;9.27;8.47;;;;;;;5.29;nan;96531.72;4953305;28;20586;-66
2023/04/22 03:39:07;;;;;;;7.93;7.30;;;;;;;5.19;nan;96522.22;4927258;28;20505;-67
2023/04/22 03:41:36;;;;;;;8.33;7.63;;;;;;;5.25;nan;96536.47;4955380;28;21004;-68
2023/04/22 03:44:04;;;;;;;8.63;7.80;;;;;;;5.25;nan;96540.91;4954955;28;20206;-67
2023/04/22 03:46:31;;;;;;;9.40;8.53;;;;;;;5.16;nan;96535.69;4925936;28;20237;-68
2023/04/22 03:48:59;;;;;;;9.57;8.63;;;;;;;5.06;nan;96532.38;4931383;28;22571;-66
2023/04/22 03:51:27;;;;;;;9.77;9.00;;;;;;;5.03;nan;96535.34;4954967;28;20218;-66
2023/04/22 03:53:55;;;;;;;8.87;8.17;;;;;;;4.98;nan;96537.66;4947548;28;20965;-71
2023/04/22 03:56:23;;;;;;;9.23;8.27;;;;;;;4.93;nan;96541.59;4931958;28;20242;-69
2023/04/22 03:58:52;;;;;;;8.87;8.17;;;;;;;4.98;nan;96527.97;4954360;28;20299;-66
2023/04/22 04:01:20;;;;;;;8.70;8.03;;;;;;;5.08;nan;96535.66;4915790;28;20611;-68
2023/04/22 04:03:48;;;;;;;8.70;7.90;;;;;;;5.15;nan;96539.28;4947989;28;20312;-67
2023/04/22 04:06:15;;;;;;;9.50;8.73;;;;;;;5.20;nan;96536.16;4927544;28;20221;-67
2023/04/22 04:08:43;;;;;;;9.60;8.70;;;;;;;5.24;nan;96537.47;4953950;28;20658;-67
2023/04/22 04:11:11;;;;;;;9.43;8.60;;;;;;;5.29;nan;96518.59;4925497;28;20210;-65
2023/04/22 04:13:38;;;;;;;9.43;8.57;;;;;;;5.24;nan;96518.28;4954509;28;20283;-68
2023/04/22 04:16:08;;;;;;;9.07;8.37;;;;;;;5.30;nan;96525.47;4929638;28;20670;-69
2023/04/22 04:18:36;;;;;;;9.40;8.50;;;;;;;5.31;nan;96521.88;4942192;28;20224;-72
2023/04/22 04:21:04;;;;;;;8.70;8.00;;;;;;;5.33;nan;96519.88;4923421;28;20300;-70
2023/04/22 04:23:32;;;;;;;9.50;8.70;;;;;;;5.24;nan;96516.44;4953917;28;20214;-72
2023/04/22 04:26:01;;;;;;;9.10;8.27;;;;;;;5.30;nan;96530.72;4951716;28;20225;-69
2023/04/22 04:28:31;;;;;;;8.50;7.80;;;;;;;5.36;nan;96522.19;4945135;28;20601;-70
2023/04/22 04:30:59;;;;;;;9.50;8.70;;;;;;;5.27;nan;96521.38;4921090;28;20638;-68
2023/04/22 04:33:28;;;;;;;8.53;7.83;;;;;;;5.19;nan;96524.00;4900953;28;20217;-67
2023/04/22 04:35:55;;;;;;;9.03;8.23;;;;;;;5.21;nan;96525.50;4936057;28;20233;-68
2023/04/22 04:38:23;;;;;;;9.27;8.47;;;;;;;5.29;nan;96518.59;4954916;28;20237;-69
2023/04/22 04:40:52;;;;;;;8.27;7.57;;;;;;;5.34;nan;96506.59;4962694;28;20256;-68
2023/04/22 04:43:24;;;;;;;8.87;8.00;;;;;;;5.48;nan;96526.09;4936686;28;20217;-68
2023/04/22 04:45:52;;;;;;;8.63;8.03;;;;;;;5.54;nan;96532.47;4929772;28;21005;-70
2023/04/22 04:48:19;;;;;;;8.23;7.53;;;;;;;5.62;nan;96536.91;4893833;28;20337;-69
2023/04/22 04:50:49;;;;;;;8.53;7.47;;;;;;;5.67;nan;96531.13;4931900;28;20821;-67
2023/04/22 04:53:16;;;;;;;10.70;7.67;;;;;;;5.66;nan;96540.84;4958240;28;20210;-66
2023/04/22 04:55:44;;;;;;;9.73;8.73;;;;;;;5.60;nan;96541.50;4955993;28;20229;-64
2023/04/22 04:58:12;;;;;;;8.97;8.17;;;;;;;5.56;nan;96538.38;4932272;28;20209;-66
2023/04/22 05:00:39;;;;;;;8.83;8.13;;;;;;;5.56;nan;96527.06;4955789;28;20214;-68
2023/04/22 05:03:07;;;;;;;8.73;8.13;;;;;;;5.61;nan;96533.44;4900090;28;20293;-69
2023/04/22 05:05:35;;;;;;;8.47;7.77;;;;;;;5.68;nan;96538.03;4936947;28;20697;-68
2023/04/22 05:08:04;;;;;;;9.47;8.50;;;;;;;5.76;nan;96536.19;4948844;28;20217;-71
2023/04/22 05:10:32;;;;;;;9.00;8.07;;;;;;;5.78;nan;96539.47;4946027;28;20211;-69
2023/04/22 05:13:00;;;;;;;9.47;8.67;;;;;;;5.88;nan;96533.22;4936425;28;20279;-68
2023/04/22 05:15:30;;;;;;;10.67;9.77;;;;;;;5.93;nan;96530.91;4959509;28;20237;-69
2023/04/22 05:17:58;;;;;;;9.20;8.37;;;;;;;6.02;nan;96540.41;4903560;28;21348;-71
2023/04/22 05:20:25;;;;;;;10.43;8.00;;;;;;;6.23;nan;96525.84;4961324;28;20205;-67
2023/04/22 05:22:53;;;;;;;8.93;8.23;;;;;;;6.46;nan;96533.78;4930584;28;20857;-67
2023/04/22 05:25:22;;;;;;;7.77;7.07;;;;;;;6.62;nan;96526.78;4959384;28;20373;-68
2023/04/22 05:27:50;;;;;;;8.37;7.57;;;;;;;6.72;nan;96529.97;4944315;28;20233;-68
2023/04/22 05:30:18;;;;;;;8.10;7.20;;;;;;;6.70;nan;96516.19;4914987;28;20213;-70
2023/04/22 05:32:45;;;;;;;8.00;7.13;;;;;;;6.80;nan;96518.59;4949806;28;20202;-69
2023/04/22 05:35:13;;;;;;;7.20;6.70;;;;;;;6.94;nan;96527.53;4889707;28;20222;-69
2023/04/22 05:37:41;;;;;;;7.90;7.30;;;;;;;7.05;nan;96521.81;4924971;28;20503;-70
2023/04/22 05:40:09;;;;;;;8.27;7.43;;;;;;;7.18;nan;96518.59;4957897;28;20228;-68
2023/04/22 05:42:38;;;;;;;8.40;7.17;;;;;;;7.46;nan;96528.53;4956598;28;20662;-68
2023/04/22 05:45:07;;;;;;;8.90;7.40;;;;;;;7.55;nan;96525.81;4932235;28;20222;-68
2023/04/22 05:47:35;;;;;;;7.53;6.83;;;;;;;7.60;nan;96520.81;4929580;28;20509;-70
2023/04/22 05:50:03;;;;;;;7.80;7.20;;;;;;;7.74;nan;96522.63;4908061;28;20209;-68
2023/04/22 05:52:31;;;;;;;7.43;6.87;;;;;;;7.78;nan;96525.72;4933515;28;20834;-69
2023/04/22 05:54:59;;;;;;;7.37;6.67;;;;;;;7.89;nan;96520.00;4934696;28;20433;-69
2023/04/22 05:57:26;;;;;;;8.33;6.90;;;;;;;8.07;nan;96522.25;4952681;28;21033;-68
2023/04/22 05:59:55;;;;;;;7.17;6.63;;;;;;;8.34;nan;96513.84;4944972;28;20945;-68
2023/04/22 06:02:23;;;;;;;7.00;6.43;;;;;;;8.60;nan;96520.41;4950392;28;20292;-68
2023/04/22 06:04:51;;;;;;;6.70;6.20;;;;;;;8.51;nan;96512.63;4935615;28;20254;-67
2023/04/22 06:07:20;;;;;;;6.67;6.07;;;;;;;8.76;nan;96520.19;4927439;28;20495;-66
2023/04/22 06:09:47;;;;;;;8.13;6.00;;;;;;;9.07;nan;96521.66;4927490;28;20755;-67
2023/04/22 06:12:15;;;;;;;7.10;6.40;;;;;;;9.17;nan;96523.19;4957035;28;20737;-67
2023/04/22 06:14:43;;;;;;;8.20;6.37;;;;;;;9.33;nan;96530.00;4959187;28;20221;-66
2023/04/22 06:17:12;;;;;;;6.93;5.73;;;;;;;9.26;nan;96533.41;4923081;28;20385;-68
2023/04/22 06:19:39;;;;;;;6.47;5.57;;;;;;;9.52;nan;96541.75;4956690;28;20307;-68
2023/04/22 06:22:07;;;;;;;6.23;5.40;;;;;;;9.79;nan;96539.25;4898859;28;20218;-69
2023/04/22 06:24:35;;;;;;;7.23;5.57;;;;;;;9.87;nan;96543.56;4933379;28;20564;-68
2023/04/22 06:27:03;;;;;;;7.00;6.30;;;;;;;10.11;nan;96539.63;4954837;28;20751;-67
2023/04/22 06:29:30;;;;;;;6.57;5.97;;;;;;;10.31;nan;96547.66;4956414;28;20702;-68
2023/04/22 06:31:58;;;;;;;6.67;5.57;;;;;;;10.42;nan;96547.13;4956577;28;20352;-70
2023/04/22 06:34:27;;;;;;;6.00;5.10;;;;;;;10.47;nan;96549.16;4949981;28;21145;-68
2023/04/22 06:36:55;;;;;;;6.10;5.50;;;;;;;10.66;nan;96552.88;4906079;28;20510;-69
2023/04/22 06:39:22;;;;;;;7.37;5.60;;;;;;;10.68;nan;96539.44;4953061;28;20439;-68
2023/04/22 06:41:50;;;;;;;5.93;5.40;;;;;;;10.95;nan;96553.56;4939395;28;20329;-70
2023/04/22 06:44:18;;;;;;;5.97;5.47;;;;;;;10.89;nan;96558.84;4959753;28;20274;-68
2023/04/22 06:46:45;;;;;;;5.27;4.80;;;;;;;11.03;nan;96559.69;4950978;28;20589;-69
2023/04/22 06:49:13;;;;;;;5.63;4.90;;;;;;;11.19;nan;96563.78;4960309;28;20268;-68
2023/04/22 06:51:43;;;;;;;6.03;5.63;;;;;;;11.33;nan;96564.59;4907683;28;22178;-69
2023/04/22 06:54:11;;;;;;;6.83;5.13;;;;;;;11.45;nan;96560.31;4955695;28;20216;-69
2023/04/22 06:56:39;;;;;;;5.63;4.60;;;;;;;11.69;nan;96563.34;4925349;28;20229;-68
2023/04/22 06:59:06;;;;;;;6.57;4.77;;;;;;;11.74;nan;96558.25;4938459;28;20272;-68
2023/04/22 07:01:34;;;;;;;7.43;5.00;;;;;;;11.83;nan;96557.00;4952882;28;20217;-67
2023/04/22 07:04:02;;;;;;;5.20;4.70;;;;;;;11.80;nan;96556.59;4945750;28;20211;-67
2023/04/22 07:06:30;;;;;;;5.20;4.60;;;;;;;12.02;nan;96559.84;4956234;28;20669;-68
2023/04/22 07:08:59;;;;;;;5.47;4.80;;;;;;;12.19;nan;96556.72;4907673;28;20331;-67
2023/04/22 07:11:26;;;;;;;5.37;4.70;;;;;;;12.33;nan;96566.31;4931213;28;20268;-67
2023/04/22 07:13:54;;;;;;;6.20;4.73;;;;;;;12.51;nan;96557.63;4956700;28;20420;-69
2023/04/22 07:16:22;;;;;;;5.50;5.00;;;;;;;12.75;nan;96555.25;4946515;28;20233;-67
2023/04/22 07:18:49;;;;;;;5.97;5.33;;;;;;;12.91;nan;96553.13;4951942;28;20244;-68
2023/04/22 07:21:17;;;;;;;5.47;4.97;;;;;;;13.05;nan;96548.50;4942842;28;20206;-68
2023/04/22 07:23:45;;;;;;;5.43;4.83;;;;;;;13.20;nan;96548.22;4905019;28;20676;-68
2023/04/22 07:26:14;;;;;;;5.67;5.10;;;;;;;13.25;nan;96533.25;4939993;28;20244;-68
2023/04/22 07:28:41;;;;;;;5.97;5.33;;;;;;;13.36;nan;96539.72;4954586;28;20209;-69
2023/04/22 07:31:09;;;;;;;5.10;4.70;;;;;;;13.58;nan;96553.47;4949975;28;20211;-67
2023/04/22 07:33:36;;;;;;;6.17;5.67;;;;;;;13.88;nan;96544.78;4946521;28;20205;-68
2023/04/22 07:36:05;;;;;;;7.17;5.53;;;;;;;14.21;nan;96542.78;4953666;28;20738;-66
2023/04/22 07:38:33;;;;;;;5.80;5.40;;;;;;;14.40;nan;96537.44;4925544;28;20213;-66
2023/04/22 07:41:01;;;;;;;5.80;5.30;;;;;;;14.64;nan;96542.88;4914791;28;20214;-69
2023/04/22 07:43:30;;;;;;;5.70;5.30;;;;;;;14.66;nan;96540.78;4946809;28;20210;-65
2023/04/22 07:45:57;;;;;;;5.40;5.10;;;;;;;14.95;nan;96541.84;4949736;28;20407;-67
2023/04/22 07:48:26;;;;;;;5.00;4.60;;;;;;;14.99;nan;96527.03;4945740;28;20209;-65
2023/04/22 07:50:53;;;;;;;5.57;4.37;;;;;;;15.16;nan;96535.19;4947238;28;20479;-66
2023/04/22 07:53:21;;;;;;;4.87;4.43;;;;;;;15.09;nan;96533.66;4950070;28;20282;-66
2023/04/22 07:55:48;;;;;;;6.80;5.60;;;;;;;15.03;nan;96535.38;4886991;28;20772;-66
2023/04/22 07:58:16;;;;;;;7.43;5.07;;;;;;;15.26;nan;96531.13;4957186;28;20217;-67
2023/04/22 08:00:45;;;;;;;5.50;5.00;;;;;;;15.27;nan;96535.44;4951690;28;20464;-66
2023/04/22 08:03:13;;;;;;;6.13;5.33;;;;;;;14.33;nan;96521.53;4945199;28;20214;-67
2023/04/22 08:05:40;;;;;;;5.27;4.77;;;;;;;14.69;nan;96519.84;4939998;28;20697;-66
2023/04/22 08:08:08;;;;;;;7.03;5.03;;;;;;;14.98;nan;96514.75;4939889;28;20374;-67
2023/04/22 08:10:36;;;;;;;4.37;4.07;;;;;;;15.08;nan;96516.03;4905070;28;20470;-67
2023/04/22 08:13:03;;;;;;;4.87;4.30;;;;;;;14.93;nan;96517.25;4937091;28;20627;-66
2023/04/22 08:15:31;;;;;;;4.93;3.90;;;;;;;14.91;nan;96514.00;4955279;28;20213;-67
2023/04/22 08:18:00;;;;;;;4.50;4.07;;;;;;;14.69;nan;96511.84;4948683;28;20321;-67
2023/04/22 08:20:28;;;;;;;4.27;3.87;;;;;;;14.85;nan;96513.06;4957049;28;20205;-68
2023/04/22 08:22:59;;;;;;;4.57;4.13;;;;;;;15.08;nan;96513.34;4952409;28;20306;-68
2023/04/22 08:25:27;;;;;;;4.30;3.90;;;;;;;15.25;nan;96510.84;4935286;28;20214;-67
2023/04/22 08:27:55;;;;;;;5.23;4.07;;;;;;;15.37;nan;96519.66;4903002;28;20399;-67
2023/04/22 08:30:23;;;;;;;4.23;3.83;;;;;;;15.31;nan;96509.91;4950786;28;20711;-68
2023/04/22 08:32:52;;;;;;;3.63;3.33;;;;;;;15.36;nan;96517.22;4955044;28;20280;-69
2023/04/22 08:35:21;;;;;;;6.13;4.03;;;;;;;15.48;nan;96513.50;4951215;28;20419;-67
2023/04/22 08:37:48;;;;;;;5.50;4.00;;;;;;;15.56;nan;96512.34;4951883;28;20522;-67
2023/04/22 08:40:16;;;;;;;3.70;3.40;;;;;;;15.67;nan;96517.91;4957475;28;20241;-69
2023/04/22 08:42:44;;;;;;;4.17;3.43;;;;;;;15.80;nan;96516.88;4878271;28;20221;-67
2023/04/22 08:45:13;;;;;;;4.00;3.80;;;;;;;16.01;nan;96516.28;4957803;28;20206;-68
2023/04/22 08:47:41;;;;;;;3.77;3.47;;;;;;;16.12;nan;96535.19;4942803;28;20856;-66
2023/04/22 08:50:09;;;;;;;3.77;3.47;;;;;;;16.30;nan;96531.56;4957905;28;20216;-64
2023/04/22 08:52:38;;;;;;;4.20;3.80;;;;;;;16.56;nan;96524.06;4954120;28;20220;-67
2023/04/22 08:55:07;;;;;;;3.57;3.27;;;;;;;16.82;nan;96521.81;4956333;28;20221;-67
2023/04/22 08:57:36;;;;;;;5.63;3.40;;;;;;;17.03;nan;96520.34;4902805;28;20642;-66
2023/04/22 09:00:06;;;;;;;3.13;3.03;;;;;;;16.81;nan;96513.00;4954382;28;20216;-67
2023/04/22 09:02:34;;;;;;;4.33;3.33;;;;;;;16.84;nan;96504.50;4952402;28;20217;-66
2023/04/22 09:05:02;;;;;;;3.53;3.23;;;;;;;16.95;nan;96510.84;4942503;28;20207;-66
2023/04/22 09:07:31;;;;;;;3.60;3.30;;;;;;;16.95;nan;96513.50;4944306;28;20743;-66
2023/04/22 09:10:00;;;;;;;3.20;2.90;;;;;;;17.03;nan;96507.78;4948639;28;20398;-65
2023/04/22 09:12:28;;;;;;;3.50;3.30;;;;;;;17.04;nan;96509.41;4901700;28;20886;-66
2023/04/22 09:14:56;;;;;;;3.47;3.17;;;;;;;17.19;nan;96497.31;4936269;28;20498;-66
2023/04/22 09:17:36;;;;;;;3.47;3.27;;;;;;;17.18;nan;96504.56;4945361;28;20237;-66
2023/04/22 09:20:05;;;;;;;3.17;2.97;;;;;;;17.40;nan;96506.47;4956711;28;20233;-67
2023/04/22 09:22:38;;;;;;;3.93;3.60;;;;;;;17.60;nan;96495.25;4946199;28;20214;-67
2023/04/22 09:25:15;;;;;;;4.43;3.57;;;;;;;17.67;nan;96499.66;4952976;28;21034;-67
2023/04/22 09:27:43;;;;;;;3.37;3.17;;;;;;;17.87;nan;96505.28;4898847;28;20419;-66
2023/04/22 09:30:13;;;;;;;4.43;3.50;;;;;;;17.82;nan;96513.25;4925745;28;20419;-66
2023/04/22 09:32:41;;;;;;;3.10;3.00;;;;;;;17.65;nan;96502.56;4933479;28;20808;-67
2023/04/22 09:35:09;;;;;;;3.20;3.00;;;;;;;17.48;nan;96502.59;4953706;28;20585;-68
2023/04/22 09:37:37;;;;;;;3.30;3.10;;;;;;;17.75;nan;96507.28;4944146;28;20237;-68
2023/04/22 09:40:18;;;;;;;3.43;3.13;;;;;;;17.97;nan;96503.78;4939903;28;20202;-69
2023/04/22 09:42:49;;;;;;;8.40;3.00;;;;;;;18.08;nan;96500.22;4903623;28;20230;-69
2023/04/22 09:45:28;;;;;;;3.37;3.07;;;;;;;18.01;nan;96497.72;4923782;28;20302;-68
2023/04/22 09:47:57;;;;;;;3.83;3.40;;;;;;;18.06;nan;96507.72;4940545;28;20562;-67
2023/04/22 09:50:26;;;;;;;3.70;3.40;;;;;;;18.16;nan;96499.78;4949660;28;20221;-68
2023/04/22 09:52:55;;;;;;;3.73;3.43;;;;;;;18.24;nan;96498.56;4954267;28;20202;-68
2023/04/22 09:55:25;;;;;;;4.73;3.10;;;;;;;18.32;nan;96497.28;4950956;28;20443;-67
2023/04/22 09:57:54;;;;;;;3.83;3.60;;;;;;;18.19;nan;96501.19;4904338;28;20449;-67
2023/04/22 10:00:25;;;;;;;3.57;3.27;;;;;;;18.13;nan;96489.56;4930154;28;20721;-68
2023/04/22 10:02:53;;;;;;;4.17;3.87;;;;;;;18.08;nan;96498.34;4938044;28;20210;-67
2023/04/22 10:05:21;;;;;;;4.37;3.97;;;;;;;18.21;nan;96491.81;4941683;28;20392;-68
2023/04/22 10:07:48;;;;;;;5.20;4.33;;;;;;;18.34;nan;96481.75;4916044;28;20455;-68
2023/04/22 10:10:16;;;;;;;4.13;3.93;;;;;;;18.25;nan;96484.09;4950536;28;20628;-69
2023/04/22 10:12:47;;;;;;;4.57;3.80;;;;;;;18.17;nan;96485.31;4894283;28;20978;-68
2023/04/22 10:15:15;;;;;;;4.00;3.60;;;;;;;18.03;nan;96481.41;4925178;28;20527;-68
2023/04/22 10:17:43;;;;;;;3.53;3.30;;;;;;;18.06;nan;96478.22;4927295;28;20653;-68
2023/04/22 10:20:13;;;;;;;4.97;3.50;;;;;;;18.09;nan;96472.38;4932761;28;20214;-68
2023/04/22 10:22:42;;;;;;;4.17;3.73;;;;;;;18.13;nan;96480.69;4951522;28;20586;-69
2023/04/22 10:25:13;;;;;;;5.40;3.50;;;;;;;18.21;nan;96466.88;4946088;28;20213;-67
2023/04/22 10:27:42;;;;;;;6.07;5.00;;;;;;;18.37;nan;96481.25;4908986;28;20230;-68
2023/04/22 10:30:26;;;;;;;6.00;3.90;;;;;;;18.35;nan;96475.31;4954468;28;20215;-69
2023/04/22 10:32:54;;;;;;;4.67;3.30;;;;;;;18.38;nan;96474.84;4930615;28;20511;-68
2023/04/22 10:35:27;;;;;;;3.70;3.30;;;;;;;18.39;nan;96473.78;4931374;28;20612;-68
2023/04/22 10:37:55;;;;;;;4.50;4.10;;;;;;;18.52;nan;96467.19;4945554;28;20260;-68
2023/04/22 10:40:22;;;;;;;4.00;3.70;;;;;;;18.46;nan;96450.25;4955425;28;20221;-69
2023/04/22 10:42:51;;;;;;;3.70;3.40;;;;;;;18.58;nan;96449.28;4901924;28;20927;-68
2023/04/22 10:45:25;;;;;;;4.63;3.50;;;;;;;18.71;nan;96454.22;4954534;28;20210;-69
2023/04/22 10:47:53;;;;;;;3.47;3.27;;;;;;;18.78;nan;96452.16;4927298;28;20232;-68
2023/04/22 10:50:23;;;;;;;4.00;3.77;;;;;;;19.00;nan;96458.56;4929894;28;20301;-69
2023/04/22 10:52:52;;;;;;;3.73;3.43;;;;;;;19.05;nan;96448.66;4952921;28;20664;-68
2023/04/22 10:55:21;;;;;;;3.23;3.03;;;;;;;19.06;nan;96444.91;4948405;28;20770;-68
2023/04/22 10:57:49;;;;;;;3.30;3.10;;;;;;;19.14;nan;96446.31;4949355;28;20289;-69
2023/04/22 11:00:29;;;;;;;3.57;3.27;;;;;;;19.07;nan;96445.72;4895180;28;20942;-70
2023/04/22 11:03:13;;;;;;;4.00;3.60;;;;;;;19.16;nan;96448.75;4927685;28;20217;-69
2023/04/22 11:05:42;;;;;;;4.20;3.50;;;;;;;19.41;nan;96445.41;4927913;28;20421;-69
2023/04/22 11:08:16;;;;;;;3.43;3.23;;;;;;;19.52;nan;96440.94;4948148;28;20210;-69
2023/04/22 11:10:45;;;;;;;3.73;3.53;;;;;;;19.55;nan;96435.03;4948155;28;20618;-69
2023/04/22 11:13:15;;;;;;;3.90;3.60;;;;;;;19.64;nan;96433.47;4953588;28;20839;-69
2023/04/22 11:15:45;;;;;;;2.90;2.80;;;;;;;19.64;nan;96433.47;4903418;28;20802;-69
2023/04/22 11:18:17;;;;;;;3.10;2.90;;;;;;;19.47;nan;96433.63;4926961;28;20436;-69
2023/04/22 11:20:44;;;;;;;2.93;2.73;;;;;;;19.58;nan;96431.81;4932004;28;20216;-68
2023/04/22 11:23:12;;;;;;;3.20;3.00;;;;;;;19.63;nan;96429.16;4951021;28;20526;-72
2023/04/22 11:25:39;;;;;;;3.73;2.73;;;;;;;19.74;nan;96431.88;4944017;28;20626;-73
2023/04/22 11:28:07;;;;;;;4.37;3.40;;;;;;;19.77;nan;96420.59;4950181;28;20206;-71
2023/04/22 11:30:35;;;;;;;3.80;3.50;;;;;;;19.97;nan;96430.66;4885775;28;20245;-70
2023/04/22 11:33:05;;;;;;;3.20;3.00;;;;;;;19.97;nan;96430.66;4950477;28;20257;-68
2023/04/22 11:35:33;;;;;;;3.90;3.60;;;;;;;20.20;nan;96428.59;4880986;28;22743;-68
2023/04/22 11:38:02;;;;;;;3.43;3.23;;;;;;;20.35;nan;96425.16;4944445;28;20214;-69
2023/04/22 11:40:32;;;;;;;5.13;3.40;;;;;;;20.24;nan;96425.09;4938986;28;20304;-68
2023/04/22 11:43:03;;;;;;;2.70;2.60;;;;;;;20.00;nan;96419.38;4957542;28;20212;-69
2023/04/22 11:45:33;;;;;;;2.87;2.40;;;;;;;20.08;nan;96415.38;4908537;28;20375;-70
2023/04/22 11:48:01;;;;;;;3.63;3.23;;;;;;;20.33;nan;96411.16;4943108;28;20201;-71
2023/04/22 11:50:32;;;;;;;2.60;2.40;;;;;;;20.46;nan;96417.91;4931474;28;20217;-69
2023/04/22 11:53:01;;;;;;;2.70;2.40;;;;;;;20.71;nan;96410.94;4934453;28;20285;-70
2023/04/22 11:55:31;;;;;;;2.97;2.67;;;;;;;20.71;nan;96406.38;4933508;28;20467;-69
2023/04/22 11:58:00;;;;;;;2.53;2.23;;;;;;;20.78;nan;96408.78;4944473;28;20674;-68
2023/04/22 12:00:32;;;;;;;2.50;2.30;;;;;;;20.85;nan;96403.97;4899164;28;21376;-68